createdAt,value
2022-09-12T00:01:23.772Z,14.40
2022-09-12T00:03:58.220Z,14.40
2022-09-12T00:06:37.298Z,14.30
2022-09-12T00:09:12.039Z,14.30
2022-09-12T00:11:43.055Z,14.30
2022-09-12T00:14:14.821Z,14.30
2022-09-12T00:16:43.677Z,14.30
2022-09-12T00:19:12.021Z,14.30
2022-09-12T00:21:40.892Z,14.20
2022-09-12T00:24:09.295Z,14.20
2022-09-12T00:26:36.420Z,14.20
2022-09-12T00:29:03.694Z,14.20
2022-09-12T00:31:30.607Z,14.20
2022-09-12T00:34:00.744Z,14.20
2022-09-12T00:36:30.337Z,14.20
2022-09-12T00:38:57.661Z,14.10
2022-09-12T00:41:37.497Z,14.10
2022-09-12T00:44:39.175Z,14.10
2022-09-12T00:47:29.713Z,14.10
2022-09-12T00:50:13.117Z,14.10
2022-09-12T00:52:52.366Z,14.10
2022-09-12T00:55:32.107Z,14.00
2022-09-12T00:58:22.365Z,13.90
2022-09-12T01:00:50.157Z,14.00
2022-09-12T01:03:20.491Z,13.90
2022-09-12T01:06:15.404Z,13.90
2022-09-12T01:08:44.569Z,13.90
2022-09-12T01:11:13.309Z,13.90
2022-09-12T01:13:40.328Z,13.90
2022-09-12T01:16:08.489Z,13.90
2022-09-12T01:19:03.122Z,13.80
2022-09-12T01:22:02.605Z,13.80
2022-09-12T01:25:06.201Z,13.80
2022-09-12T01:28:23.245Z,13.80
2022-09-12T01:31:04.177Z,13.70
2022-09-12T01:34:08.050Z,13.70
2022-09-12T01:36:57.470Z,13.70
2022-09-12T01:39:51.077Z,13.60
2022-09-12T01:42:40.928Z,13.60
2022-09-12T01:45:37.678Z,13.60
2022-09-12T01:48:24.992Z,13.50
2022-09-12T01:51:13.664Z,13.50
2022-09-12T01:53:48.692Z,13.50
2022-09-12T01:56:29.682Z,13.50
2022-09-12T01:59:03.937Z,13.50
2022-09-12T02:01:39.560Z,13.50
2022-09-12T02:04:22.460Z,13.50
2022-09-12T02:07:06.144Z,13.40
2022-09-12T02:09:59.403Z,13.40
2022-09-12T02:12:37.209Z,13.40
2022-09-12T02:15:09.148Z,13.40
2022-09-12T02:17:44.243Z,13.40
2022-09-12T02:20:48.604Z,13.40
2022-09-12T02:23:26.537Z,13.30
2022-09-12T02:26:01.218Z,13.30
2022-09-12T02:28:35.189Z,13.30
2022-09-12T02:31:25.284Z,13.20
2022-09-12T02:34:10.334Z,13.20
2022-09-12T02:37:10.793Z,13.20
2022-09-12T02:39:38.846Z,13.20
2022-09-12T02:42:07.648Z,13.20
2022-09-12T02:44:36.470Z,13.10
2022-09-12T02:47:35.750Z,13.10
2022-09-12T02:50:05.395Z,13.00
2022-09-12T02:52:32.859Z,13.10
2022-09-12T02:55:00.209Z,13.00
2022-09-12T02:57:27.052Z,13.00
2022-09-12T02:59:59.220Z,13.00
2022-09-12T03:02:52.094Z,12.90
2022-09-12T03:05:32.876Z,13.00
2022-09-12T03:08:22.003Z,12.90
2022-09-12T03:11:18.446Z,12.90
2022-09-12T03:14:07.243Z,12.90
2022-09-12T03:16:37.774Z,12.90
2022-09-12T03:19:13.517Z,12.90
2022-09-12T03:22:13.421Z,12.90
2022-09-12T03:25:04.276Z,12.90
2022-09-12T03:27:39.250Z,12.90
2022-09-12T03:30:08.362Z,12.80
2022-09-12T03:32:53.841Z,12.90
2022-09-12T03:35:25.240Z,12.90
2022-09-12T03:37:53.276Z,12.80
2022-09-12T03:40:20.622Z,12.80
2022-09-12T03:42:47.693Z,12.80
2022-09-12T03:45:16.470Z,12.70
2022-09-12T03:47:43.317Z,12.80
2022-09-12T03:50:10.577Z,12.80
2022-09-12T03:52:37.523Z,12.70
2022-09-12T03:55:05.138Z,12.70
2022-09-12T03:57:32.093Z,12.70
2022-09-12T03:59:58.901Z,12.70
2022-09-12T04:02:25.812Z,12.70
2022-09-12T04:04:52.731Z,12.70
2022-09-12T04:07:19.543Z,12.60
2022-09-12T04:09:46.434Z,12.60
2022-09-12T04:12:14.043Z,12.60
2022-09-12T04:14:41.138Z,12.60
2022-09-12T04:17:08.468Z,12.60
2022-09-12T04:19:35.242Z,12.60
2022-09-12T04:22:02.031Z,12.60
2022-09-12T04:24:28.833Z,12.60
2022-09-12T04:26:55.783Z,12.50
2022-09-12T04:29:22.909Z,12.50
2022-09-12T04:31:50.482Z,12.50
2022-09-12T04:34:17.542Z,12.50
2022-09-12T04:36:44.356Z,12.40
2022-09-12T04:39:12.015Z,12.40
2022-09-12T04:41:41.929Z,12.40
2022-09-12T04:44:14.615Z,12.40
2022-09-12T04:46:46.666Z,12.40
2022-09-12T04:49:19.438Z,12.40
2022-09-12T04:51:47.185Z,12.40
2022-09-12T04:54:18.307Z,12.40
2022-09-12T04:56:49.024Z,12.30
2022-09-12T04:59:19.289Z,12.40
2022-09-12T05:01:46.676Z,12.40
2022-09-12T05:04:14.938Z,12.40
2022-09-12T05:06:42.984Z,12.40
2022-09-12T05:09:13.118Z,12.30
2022-09-12T05:14:32.405Z,12.40
2022-09-12T05:17:01.441Z,12.40
2022-09-12T05:19:30.190Z,12.40
2022-09-12T05:21:58.022Z,12.40
2022-09-12T05:24:26.167Z,12.40
2022-09-12T05:26:53.233Z,12.40
2022-09-12T05:29:20.096Z,12.40
2022-09-12T05:31:50.152Z,12.50
2022-09-12T05:34:17.009Z,12.50
2022-09-12T05:36:43.961Z,12.50
2022-09-12T05:39:10.748Z,12.60
2022-09-12T05:41:37.655Z,12.60
2022-09-12T05:44:07.339Z,12.60
2022-09-12T05:46:40.753Z,12.60
2022-09-12T05:49:11.937Z,12.70
2022-09-12T05:51:44.895Z,12.70
2022-09-12T05:54:15.752Z,12.80
2022-09-12T05:56:44.149Z,12.80
2022-09-12T05:59:20.560Z,12.90
2022-09-12T06:01:48.849Z,12.90
2022-09-12T06:04:16.687Z,13.00
2022-09-12T06:06:46.145Z,13.10
2022-09-12T06:09:16.134Z,13.10
2022-09-12T06:11:44.844Z,13.20
2022-09-12T06:14:15.011Z,13.30
2022-09-12T06:16:42.051Z,13.40
2022-09-12T06:19:19.997Z,13.50
2022-09-12T06:21:49.392Z,13.60
2022-09-12T06:24:18.913Z,13.80
2022-09-12T06:26:47.327Z,13.90
2022-09-12T06:29:15.219Z,13.90
2022-09-12T06:31:43.751Z,14.10
2022-09-12T06:34:14.465Z,14.20
2022-09-12T06:36:45.469Z,14.30
2022-09-12T06:39:16.496Z,14.40
2022-09-12T06:41:44.627Z,14.60
2022-09-12T06:44:19.430Z,14.70
2022-09-12T06:46:47.228Z,14.80
2022-09-12T06:49:14.573Z,15.00
2022-09-12T06:51:43.199Z,15.10
2022-09-12T06:54:14.075Z,15.20
2022-09-12T06:56:40.990Z,15.30
2022-09-12T06:59:07.823Z,15.50
2022-09-12T07:01:34.714Z,15.60
2022-09-12T07:04:04.178Z,15.70
2022-09-12T07:06:37.467Z,15.90
2022-09-12T07:09:07.660Z,16.00
2022-09-12T07:11:38.699Z,16.20
2022-09-12T07:14:08.041Z,16.30
2022-09-12T07:16:38.352Z,16.40
2022-09-12T07:19:08.142Z,16.60
2022-09-12T07:21:40.614Z,16.70
2022-09-12T07:24:10.399Z,16.80
2022-09-12T07:26:40.034Z,16.90
2022-09-12T07:29:34.875Z,17.00
2022-09-12T07:31:56.057Z,17.10
2022-09-12T07:34:22.816Z,17.20
2022-09-12T07:36:49.628Z,17.30
2022-09-12T07:39:16.479Z,17.40
2022-09-12T07:41:43.265Z,17.50
2022-09-12T07:44:10.125Z,17.70
2022-09-12T07:46:36.939Z,17.90
2022-09-12T07:49:03.800Z,18.10
2022-09-12T07:51:31.766Z,18.40
2022-09-12T07:53:58.914Z,18.70
2022-09-12T07:56:31.171Z,19.20
2022-09-12T07:58:58.844Z,19.60
2022-09-12T08:01:26.093Z,20.20
2022-09-12T08:03:59.525Z,20.70
2022-09-12T08:06:30.288Z,21.30
2022-09-12T08:08:58.417Z,21.90
2022-09-12T08:11:30.401Z,22.50
2022-09-12T08:13:58.557Z,23.00
2022-09-12T08:16:30.180Z,23.50
2022-09-12T08:18:57.706Z,24.00
2022-09-12T08:21:28.875Z,24.50
2022-09-12T08:24:05.990Z,25.00
2022-09-12T08:26:34.739Z,25.40
2022-09-12T08:29:01.938Z,25.80
2022-09-12T08:31:28.977Z,26.10
2022-09-12T08:33:57.415Z,26.40
2022-09-12T08:36:27.365Z,26.70
2022-09-12T08:39:00.009Z,27.00
2022-09-12T08:41:44.253Z,27.30
2022-09-12T08:44:56.067Z,27.50
2022-09-12T08:47:29.118Z,27.70
2022-09-12T08:50:14.650Z,28.00
2022-09-12T08:53:03.340Z,28.30
2022-09-12T08:55:53.508Z,28.50
2022-09-12T08:58:24.072Z,28.70
2022-09-12T09:01:22.431Z,29.00
2022-09-12T09:04:42.076Z,29.30
2022-09-12T09:07:33.093Z,29.70
2022-09-12T09:10:15.017Z,30.00
2022-09-12T09:13:11.905Z,30.30
2022-09-12T09:16:15.271Z,30.50
2022-09-12T09:18:44.785Z,30.80
2022-09-12T09:21:32.970Z,31.10
2022-09-12T09:24:12.813Z,31.30
2022-09-12T09:26:48.831Z,31.60
2022-09-12T09:29:36.833Z,31.80
2022-09-12T09:32:14.479Z,31.90
2022-09-12T09:34:41.735Z,32.10
2022-09-12T09:37:40.831Z,32.20
2022-09-12T09:40:42.180Z,32.40
2022-09-12T09:43:24.233Z,32.70
2022-09-12T09:45:53.206Z,32.80
2022-09-12T09:48:27.301Z,33.00
2022-09-12T09:50:54.225Z,33.20
2022-09-12T09:53:56.244Z,33.40
2022-09-12T09:56:42.353Z,33.60
2022-09-12T09:59:13.143Z,33.80
2022-09-12T10:01:57.540Z,33.90
2022-09-12T10:04:32.035Z,34.20
2022-09-12T10:07:02.425Z,34.50
2022-09-12T10:09:33.022Z,34.70
2022-09-12T10:12:19.347Z,35.00
2022-09-12T10:15:18.320Z,35.20
2022-09-12T10:17:49.507Z,35.40
2022-09-12T10:20:34.382Z,35.50
2022-09-12T10:23:37.401Z,35.60
2022-09-12T10:26:12.455Z,35.80
2022-09-12T10:28:49.509Z,35.90
2022-09-12T10:31:48.753Z,35.90
2022-09-12T10:34:27.873Z,35.90
2022-09-12T10:37:03.393Z,36.00
2022-09-12T10:39:31.355Z,35.80
2022-09-12T10:41:58.262Z,35.70
2022-09-12T10:44:30.705Z,35.20
2022-09-12T10:47:00.178Z,34.70
2022-09-12T10:49:37.955Z,34.10
2022-09-12T10:52:25.382Z,33.60
2022-09-12T10:54:53.573Z,32.90
2022-09-12T10:58:09.019Z,32.20
2022-09-12T11:00:46.760Z,31.50
2022-09-12T11:03:29.391Z,30.90
2022-09-12T11:06:01.654Z,30.30
2022-09-12T11:08:40.233Z,29.70
2022-09-12T11:11:37.297Z,29.20
2022-09-12T11:14:24.669Z,28.80
2022-09-12T11:17:16.015Z,28.30
2022-09-12T11:20:08.101Z,27.90
2022-09-12T11:23:20.473Z,27.50
2022-09-12T11:26:03.792Z,27.20
2022-09-12T11:29:03.170Z,26.90
2022-09-12T11:32:18.387Z,26.60
2022-09-12T11:34:55.259Z,26.40
2022-09-12T11:37:43.779Z,26.20
2022-09-12T11:40:22.856Z,26.00
2022-09-12T11:42:57.602Z,25.80
2022-09-12T11:45:36.137Z,25.60
2022-09-12T11:48:12.881Z,25.50
2022-09-12T11:50:40.019Z,25.40
2022-09-12T11:53:23.754Z,25.30
2022-09-12T11:56:12.043Z,25.20
2022-09-12T11:58:42.246Z,25.10
2022-09-12T12:01:21.632Z,25.00
2022-09-12T12:03:49.419Z,25.00
2022-09-12T12:06:36.753Z,24.90
2022-09-12T12:09:05.532Z,24.90
2022-09-12T12:11:58.360Z,24.80
2022-09-12T12:14:37.746Z,24.80
2022-09-12T12:17:04.745Z,24.80
2022-09-12T12:19:37.658Z,24.70
2022-09-12T12:22:24.513Z,24.70
2022-09-12T12:24:58.588Z,24.70
2022-09-12T12:27:55.074Z,24.60
2022-09-12T12:30:30.721Z,24.60
2022-09-12T12:33:02.308Z,24.70
2022-09-12T12:36:01.537Z,24.60
2022-09-12T12:38:59.988Z,24.70
2022-09-12T12:41:35.755Z,24.80
2022-09-12T12:44:44.275Z,24.80
2022-09-12T12:47:25.752Z,24.90
2022-09-12T12:49:59.808Z,25.00
2022-09-12T12:52:32.065Z,25.00
2022-09-12T12:55:04.813Z,25.10
2022-09-12T12:57:36.776Z,25.20
2022-09-12T13:00:26.396Z,25.30
2022-09-12T13:03:06.563Z,25.40
2022-09-12T13:05:50.228Z,25.50
2022-09-12T13:08:16.919Z,25.60
2022-09-12T13:11:16.702Z,25.70
2022-09-12T13:14:00.216Z,25.80
2022-09-12T13:16:40.257Z,25.90
2022-09-12T13:19:18.452Z,25.90
2022-09-12T13:22:03.058Z,26.00
2022-09-12T13:24:30.983Z,26.00
2022-09-12T13:26:58.129Z,26.10
2022-09-12T13:29:27.832Z,26.20
2022-09-12T13:32:00.704Z,26.30
2022-09-12T13:34:35.985Z,26.40
2022-09-12T13:37:30.102Z,26.50
2022-09-12T13:40:52.055Z,26.60
2022-09-12T13:43:42.177Z,26.80
2022-09-12T13:46:16.424Z,27.00
2022-09-12T13:48:44.382Z,27.20
2022-09-12T13:51:26.297Z,27.60
2022-09-12T13:53:57.736Z,28.00
2022-09-12T13:56:24.721Z,28.60
2022-09-12T13:59:01.351Z,29.20
2022-09-12T14:01:40.283Z,29.80
2022-09-12T14:04:41.459Z,30.30
2022-09-12T14:07:28.592Z,30.80
2022-09-12T14:09:59.429Z,31.40
2022-09-12T14:12:37.316Z,31.80
2022-09-12T14:15:05.327Z,32.30
2022-09-12T14:17:38.749Z,32.70
2022-09-12T14:20:16.505Z,33.30
2022-09-12T14:22:43.580Z,33.80
2022-09-12T14:25:25.139Z,34.30
2022-09-12T14:27:55.756Z,34.80
2022-09-12T14:30:34.169Z,35.30
2022-09-12T14:33:09.947Z,35.80
2022-09-12T14:35:45.629Z,36.30
2022-09-12T14:38:15.157Z,36.80
2022-09-12T14:40:53.297Z,37.30
2022-09-12T14:43:33.364Z,37.70
2022-09-12T14:46:19.641Z,37.80
2022-09-12T14:48:53.556Z,37.90
2022-09-12T14:51:26.607Z,37.80
2022-09-12T14:53:53.993Z,37.80
2022-09-12T14:56:36.565Z,37.70
2022-09-12T14:59:38.372Z,37.60
2022-09-12T15:02:14.306Z,37.50
2022-09-12T15:04:47.264Z,37.30
2022-09-12T15:07:36.674Z,37.10
2022-09-12T15:10:18.136Z,36.80
2022-09-12T15:12:45.092Z,36.40
2022-09-12T15:15:21.468Z,36.00
2022-09-12T15:17:48.255Z,35.70
2022-09-12T15:20:15.257Z,35.50
2022-09-12T15:22:42.673Z,35.30
2022-09-12T15:25:13.122Z,35.00
2022-09-12T15:27:42.715Z,34.80
2022-09-12T15:30:12.973Z,34.70
2022-09-12T15:32:43.158Z,34.70
2022-09-12T15:35:25.011Z,34.80
2022-09-12T15:37:51.913Z,35.00
2022-09-12T15:40:19.045Z,35.30
2022-09-12T15:42:45.947Z,35.60
2022-09-12T15:45:21.714Z,35.60
2022-09-12T15:47:48.567Z,35.60
2022-09-12T15:50:15.947Z,35.60
2022-09-12T15:52:42.771Z,35.60
2022-09-12T15:55:22.717Z,35.70
2022-09-12T15:57:50.292Z,35.90
2022-09-12T16:00:18.757Z,36.00
2022-09-12T16:02:49.352Z,36.10
2022-09-12T16:05:25.974Z,36.10
2022-09-12T16:07:54.819Z,36.00
2022-09-12T16:10:30.023Z,35.70
2022-09-12T16:12:57.823Z,35.50
2022-09-12T16:15:26.119Z,35.10
2022-09-12T16:17:53.698Z,34.80
2022-09-12T16:20:22.673Z,34.40
2022-09-12T16:22:49.520Z,34.00
2022-09-12T16:25:17.364Z,33.60
2022-09-12T16:27:44.780Z,33.10
2022-09-12T16:30:13.011Z,32.60
2022-09-12T16:32:40.135Z,32.10
2022-09-12T16:35:07.828Z,31.70
2022-09-12T16:37:34.700Z,31.20
2022-09-12T16:40:04.679Z,30.80
2022-09-12T16:42:31.712Z,30.40
2022-09-12T16:44:58.516Z,30.00
2022-09-12T16:47:25.326Z,29.70
2022-09-12T16:49:52.177Z,29.40
2022-09-12T16:52:19.354Z,29.10
2022-09-12T16:54:46.259Z,28.80
2022-09-12T16:57:13.141Z,28.50
2022-09-12T16:59:40.065Z,28.20
2022-09-12T17:02:08.064Z,27.90
2022-09-12T17:04:34.947Z,27.60
2022-09-12T17:07:01.803Z,27.40
2022-09-12T17:09:29.332Z,27.20
2022-09-12T17:11:57.321Z,26.90
2022-09-12T17:14:25.766Z,26.60
2022-09-12T17:16:53.097Z,26.40
2022-09-12T17:19:32.315Z,26.10
2022-09-12T17:21:59.192Z,25.90
2022-09-12T17:24:26.768Z,25.70
2022-09-12T17:26:54.063Z,25.40
2022-09-12T17:29:21.167Z,25.20
2022-09-12T17:31:48.819Z,25.00
2022-09-12T17:34:16.457Z,24.80
2022-09-12T17:36:45.454Z,24.60
2022-09-12T17:39:14.039Z,24.40
2022-09-12T17:41:42.622Z,24.20
2022-09-12T17:44:12.856Z,24.10
2022-09-12T17:46:40.920Z,23.90
2022-09-12T17:49:13.325Z,23.70
2022-09-12T17:51:41.597Z,23.60
2022-09-12T17:54:15.672Z,23.40
2022-09-12T17:56:45.396Z,23.20
2022-09-12T17:59:17.378Z,23.10
2022-09-12T18:02:03.428Z,23.00
2022-09-12T18:04:30.943Z,22.80
2022-09-12T18:07:00.197Z,22.70
2022-09-12T18:09:28.224Z,22.60
2022-09-12T18:11:55.445Z,22.40
2022-09-12T18:14:22.867Z,22.30
2022-09-12T18:16:50.281Z,22.20
2022-09-12T18:19:17.993Z,22.00
2022-09-12T18:21:45.084Z,21.90
2022-09-12T18:24:12.238Z,21.80
2022-09-12T18:26:39.327Z,21.70
2022-09-12T18:29:07.329Z,21.60
2022-09-12T18:31:34.499Z,21.60
2022-09-12T18:34:02.530Z,21.40
2022-09-12T18:36:30.592Z,21.30
2022-09-12T18:38:59.301Z,21.20
2022-09-12T18:41:28.851Z,21.20
2022-09-12T18:43:58.944Z,21.10
2022-09-12T18:46:29.015Z,21.00
2022-09-12T18:48:57.936Z,20.90
2022-09-12T18:51:34.037Z,20.80
2022-09-12T18:54:06.337Z,20.70
2022-09-12T18:56:37.633Z,20.60
2022-09-12T18:59:07.097Z,20.50
2022-09-12T19:01:37.487Z,20.40
2022-09-12T19:04:07.325Z,20.30
2022-09-12T19:06:41.617Z,20.30
2022-09-12T19:09:10.450Z,20.20
2022-09-12T19:11:42.583Z,20.10
2022-09-12T19:14:09.391Z,20.00
2022-09-12T19:16:38.139Z,20.00
2022-09-12T19:19:05.103Z,19.90
2022-09-12T19:21:34.522Z,19.80
2022-09-12T19:24:06.346Z,19.80
2022-09-12T19:26:34.498Z,19.70
2022-09-12T19:29:02.956Z,19.60
2022-09-12T19:31:31.186Z,19.50
2022-09-12T19:34:07.781Z,19.50
2022-09-12T19:36:50.917Z,19.40
2022-09-12T19:39:19.829Z,19.40
2022-09-12T19:41:47.851Z,19.30
2022-09-12T19:44:14.750Z,19.30
2022-09-12T19:46:41.848Z,19.20
2022-09-12T19:49:11.660Z,19.20
2022-09-12T19:51:38.709Z,19.10
2022-09-12T19:54:06.147Z,19.00
2022-09-12T19:56:33.046Z,18.90
2022-09-12T19:59:00.128Z,18.90
2022-09-12T20:01:28.633Z,18.80
2022-09-12T20:03:57.851Z,18.80
2022-09-12T20:06:25.679Z,18.70
2022-09-12T20:08:52.577Z,18.70
2022-09-12T20:11:21.914Z,18.60
2022-09-12T20:13:49.481Z,18.60
2022-09-12T20:16:25.142Z,18.60
2022-09-12T20:19:01.692Z,18.50
2022-09-12T20:21:32.104Z,18.40
2022-09-12T20:24:13.297Z,18.40
2022-09-12T20:26:40.538Z,18.40
2022-09-12T20:29:08.624Z,18.40
2022-09-12T20:31:38.330Z,18.30
2022-09-12T20:34:06.039Z,18.20
2022-09-12T20:36:33.591Z,18.20
2022-09-12T20:39:02.502Z,18.10
2022-09-12T20:41:33.770Z,18.10
2022-09-12T20:44:00.853Z,18.00
2022-09-12T20:46:28.742Z,18.00
2022-09-12T20:48:55.862Z,17.90
2022-09-12T20:51:25.577Z,17.90
2022-09-12T20:53:58.332Z,17.80
2022-09-12T20:56:27.095Z,17.80
2022-09-12T20:58:55.674Z,17.70
2022-09-12T21:01:23.142Z,17.70
2022-09-12T21:03:50.474Z,17.70
2022-09-12T21:06:18.827Z,17.60
2022-09-12T21:08:48.440Z,17.60
2022-09-12T21:11:16.985Z,17.50
2022-09-12T21:13:44.331Z,17.50
2022-09-12T21:16:18.512Z,17.50
2022-09-12T21:18:46.217Z,17.40
2022-09-12T21:21:15.471Z,17.40
2022-09-12T21:23:42.751Z,17.40
2022-09-12T21:26:10.222Z,17.30
2022-09-12T21:28:37.160Z,17.30
2022-09-12T21:31:04.397Z,17.30
2022-09-12T21:33:31.294Z,17.20
2022-09-12T21:36:07.948Z,17.20
2022-09-12T21:38:35.210Z,17.10
2022-09-12T21:41:13.757Z,17.10
2022-09-12T21:43:41.767Z,17.00
2022-09-12T21:46:09.760Z,17.00
2022-09-12T21:48:37.537Z,17.00
2022-09-12T21:51:05.389Z,16.90
2022-09-12T21:53:32.341Z,16.90
2022-09-12T21:56:03.787Z,16.80
2022-09-12T21:58:31.165Z,16.80
2022-09-12T22:00:58.143Z,16.80
2022-09-12T22:03:26.017Z,16.70
2022-09-12T22:06:01.980Z,16.70
2022-09-12T22:08:31.143Z,16.70
2022-09-12T22:11:07.844Z,16.60
2022-09-12T22:13:36.567Z,16.60
2022-09-12T22:16:03.926Z,16.60
2022-09-12T22:18:35.005Z,16.50
2022-09-12T22:21:13.951Z,16.50
2022-09-12T22:23:59.868Z,16.50
2022-09-12T22:26:27.514Z,16.50
2022-09-12T22:28:54.883Z,16.40
2022-09-12T22:31:22.444Z,16.40
2022-09-12T22:33:51.439Z,16.40
2022-09-12T22:36:18.311Z,16.40
2022-09-12T22:38:45.107Z,16.40
2022-09-12T22:41:13.207Z,16.40
2022-09-12T22:43:40.175Z,16.30
2022-09-12T22:46:14.745Z,16.30
2022-09-12T22:48:42.759Z,16.30
2022-09-12T22:51:11.261Z,16.20
2022-09-12T22:53:38.779Z,16.20
2022-09-12T22:56:07.006Z,16.10
2022-09-12T22:58:38.630Z,16.10
2022-09-12T23:01:06.545Z,16.10
2022-09-12T23:03:34.044Z,16.10
2022-09-12T23:06:00.929Z,16.10
2022-09-12T23:08:29.551Z,16.10
2022-09-12T23:11:19.030Z,16.00
2022-09-12T23:13:48.786Z,16.00
2022-09-12T23:16:25.267Z,16.00
2022-09-12T23:18:52.570Z,15.90
2022-09-12T23:21:21.916Z,15.90
2022-09-12T23:23:49.861Z,15.80
2022-09-12T23:26:24.065Z,15.80
2022-09-12T23:28:57.395Z,15.70
2022-09-12T23:31:29.719Z,15.70
2022-09-12T23:33:59.295Z,15.70
2022-09-12T23:36:27.195Z,15.60
2022-09-12T23:38:55.327Z,15.60
2022-09-12T23:41:22.969Z,15.60
2022-09-12T23:43:49.954Z,15.50
2022-09-12T23:46:18.976Z,15.50
2022-09-12T23:48:46.135Z,15.50
2022-09-12T23:51:13.286Z,15.50
2022-09-12T23:53:40.454Z,15.50
2022-09-12T23:56:07.611Z,15.50
2022-09-12T23:58:34.405Z,15.40
